Terminal Aerodrome Forecast
Issued by NWS Sioux Falls, SD

Home | Current Version | Previous Version | Graphics & Text | Print | Product List | Glossary On
Versions: 1 2 3 4 5 6 7 8 9 10 11 12
597
FTUS43 KFSD 200520
TAFSUX
TAF
KSUX 200520Z 2006/2106 06005KT P6SM -RA OVC070
     FM201000 05005KT 6SM -RA OVC040
     FM201400 03006KT 6SM -RA OVC025
     FM201900 36010KT P6SM OVC030
     FM202300 VRB04KT P6SM OVC060=

USA.gov is the U.S. government's official web portal to all federal, state and local government web resources and services.